Time,TemperatureF,DewpointF,PressureIn,WindDirection,WindDirectionDegrees,WindSpeedMPH,WindSpeedGustMPH,Humidity,HourlyPrecipIn,Conditions,Clouds,dailyrainin,SoftwareType,DateUTC
2013-03-02 00:00:00,24.9,21.0,30.36,North,10,2.5,3.7,87,0.00,,,0.00,TxWx,2013-03-02 06:00:00,
2013-03-02 00:05:00,24.9,21.0,30.36,ENE,77,0.6,1.2,87,0.00,,,0.00,TxWx,2013-03-02 06:05:00,
2013-03-02 00:10:00,24.9,21.0,30.36,NNW,347,0.0,0.6,87,0.00,,,0.00,TxWx,2013-03-02 06:10:00,
2013-03-02 00:16:00,24.9,21.0,30.37,North,10,0.0,0.6,87,0.00,,,0.00,TxWx,2013-03-02 06:16:00,
2013-03-02 00:21:00,24.9,21.0,30.37,North,10,0.0,0.6,88,0.00,,,0.00,TxWx,2013-03-02 06:21:00,
2013-03-02 00:26:00,24.9,21.0,30.37,NNE,32,0.0,0.6,87,0.00,,,0.00,TxWx,2013-03-02 06:26:00,
2013-03-02 00:32:00,24.9,21.0,30.37,NNW,347,0.6,1.9,87,0.00,,,0.00,TxWx,2013-03-02 06:32:00,
2013-03-02 00:37:00,24.8,21.0,30.37,NE,55,0.6,1.2,88,0.00,,,0.00,TxWx,2013-03-02 06:37:00,
2013-03-02 00:42:00,24.8,21.0,30.36,NNE,32,0.6,1.2,87,0.00,,,0.00,TxWx,2013-03-02 06:42:00,
2013-03-02 00:48:00,24.6,21.0,30.36,NW,325,0.0,0.6,87,0.00,,,0.00,TxWx,2013-03-02 06:48:00,
2013-03-02 00:53:00,24.5,21.0,30.36,NW,325,0.0,0.6,87,0.00,,,0.00,TxWx,2013-03-02 06:53:00,
2013-03-02 00:58:00,24.5,20.0,30.36,NNE,32,0.0,0.6,87,0.00,,,0.00,TxWx,2013-03-02 06:58:00,
2013-03-02 01:04:00,24.4,20.0,30.36,NNE,32,0.6,1.2,87,0.00,,,0.00,TxWx,2013-03-02 07:04:00,
2013-03-02 01:09:00,24.3,20.0,30.36,North,10,0.6,2.5,87,0.00,,,0.00,TxWx,2013-03-02 07:09:00,
2013-03-02 01:15:00,24.3,20.0,30.36,NNE,32,0.0,0.6,87,0.00,,,0.00,TxWx,2013-03-02 07:15:00,
2013-03-02 01:20:00,24.2,20.0,30.36,North,10,1.2,1.9,88,0.00,,,0.00,TxWx,2013-03-02 07:20:00,
2013-03-02 01:26:00,24.2,20.0,30.37,NNE,32,0.0,0.6,88,0.00,,,0.00,TxWx,2013-03-02 07:26:00,
2013-03-02 01:31:00,24.1,20.0,30.37,NNW,347,0.0,0.6,88,0.00,,,0.00,TxWx,2013-03-02 07:31:00,
2013-03-02 01:36:00,24.0,20.0,30.37,NNE,32,0.0,0.6,88,0.00,,,0.00,TxWx,2013-03-02 07:36:00,
2013-03-02 01:42:00,23.9,20.0,30.37,NNE,32,0.0,0.6,88,0.00,,,0.00,TxWx,2013-03-02 07:42:00,
2013-03-02 01:48:00,23.9,20.0,30.37,NNW,347,0.6,0.6,88,0.00,,,0.00,TxWx,2013-03-02 07:48:00,
2013-03-02 01:53:00,23.9,20.0,30.37,ENE,77,0.0,0.6,88,0.00,,,0.00,TxWx,2013-03-02 07:53:00,
2013-03-02 01:58:00,23.9,20.0,30.37,NNW,347,2.5,2.5,88,0.00,,,0.00,TxWx,2013-03-02 07:58:00,
2013-03-02 02:03:00,23.8,20.0,30.36,North,10,0.0,0.6,88,0.00,,,0.00,TxWx,2013-03-02 08:03:00,
2013-03-02 02:09:00,23.6,20.0,30.36,NNW,347,0.6,1.2,88,0.00,,,0.00,TxWx,2013-03-02 08:09:00,
2013-03-02 02:14:00,23.8,20.0,30.36,NNE,32,1.2,2.5,88,0.00,,,0.00,TxWx,2013-03-02 08:14:00,
2013-03-02 02:19:00,23.7,20.0,30.36,North,10,0.0,0.6,87,0.00,,,0.00,TxWx,2013-03-02 08:19:00,
2013-03-02 02:25:00,23.7,20.0,30.36,NNE,32,0.0,0.6,87,0.00,,,0.00,TxWx,2013-03-02 08:25:00,
2013-03-02 02:30:00,23.8,20.0,30.36,NNW,347,1.2,1.2,87,0.00,,,0.00,TxWx,2013-03-02 08:30:00,
2013-03-02 02:36:00,23.8,19.0,30.36,NE,55,1.2,1.9,86,0.00,,,0.00,TxWx,2013-03-02 08:36:00,
2013-03-02 02:42:00,23.8,19.0,30.36,NNW,347,1.9,4.3,85,0.00,,,0.00,TxWx,2013-03-02 08:42:00,
2013-03-02 02:47:00,23.7,19.0,30.36,NNW,347,0.6,1.9,85,0.00,,,0.00,TxWx,2013-03-02 08:47:00,
2013-03-02 02:53:00,23.8,19.0,30.35,NE,55,0.0,0.6,85,0.00,,,0.00,TxWx,2013-03-02 08:53:00,
2013-03-02 02:58:00,23.8,19.0,30.35,NNW,347,0.6,1.9,85,0.00,,,0.00,TxWx,2013-03-02 08:58:00,
2013-03-02 03:04:00,23.8,19.0,30.35,NNW,347,0.0,0.6,85,0.00,,,0.00,TxWx,2013-03-02 09:04:00,
2013-03-02 03:09:00,23.9,19.0,30.35,NNE,32,0.0,0.6,85,0.00,,,0.00,TxWx,2013-03-02 09:09:00,
2013-03-02 03:15:00,23.8,19.0,30.34,NNW,347,0.6,0.6,85,0.00,,,0.00,TxWx,2013-03-02 09:15:00,
2013-03-02 03:20:00,23.8,19.0,30.34,North,10,0.0,0.6,84,0.00,,,0.00,TxWx,2013-03-02 09:20:00,
2013-03-02 03:25:00,23.8,19.0,30.34,North,10,0.0,0.6,84,0.00,,,0.00,TxWx,2013-03-02 09:25:00,
2013-03-02 03:31:00,23.7,19.0,30.34,NNW,347,1.2,3.1,83,0.00,,,0.00,TxWx,2013-03-02 09:31:00,
2013-03-02 03:36:00,23.6,18.0,30.34,North,10,2.5,2.5,83,0.00,,,0.00,TxWx,2013-03-02 09:36:00,
2013-03-02 03:42:00,23.7,18.0,30.35,North,10,1.2,1.2,83,0.00,,,0.00,TxWx,2013-03-02 09:42:00,
2013-03-02 03:47:00,23.6,19.0,30.35,North,10,0.0,0.6,84,0.00,,,0.00,TxWx,2013-03-02 09:47:00,
2013-03-02 03:53:00,23.6,19.0,30.35,North,10,0.0,0.6,84,0.00,,,0.00,TxWx,2013-03-02 09:53:00,
2013-03-02 03:58:00,23.6,19.0,30.36,NNW,347,1.2,4.3,84,0.00,,,0.00,TxWx,2013-03-02 09:58:00,
2013-03-02 04:04:00,23.6,19.0,30.35,NE,55,0.0,0.6,84,0.00,,,0.00,TxWx,2013-03-02 10:04:00,
2013-03-02 04:09:00,23.6,19.0,30.35,North,10,0.6,2.5,83,0.00,,,0.00,TxWx,2013-03-02 10:09:00,
2013-03-02 04:14:00,23.6,19.0,30.36,ENE,77,0.0,1.2,83,0.00,,,0.00,TxWx,2013-03-02 10:14:00,
2013-03-02 04:20:00,23.5,19.0,30.36,NNE,32,1.9,3.7,83,0.00,,,0.00,TxWx,2013-03-02 10:20:00,
2013-03-02 04:25:00,23.5,17.0,30.35,NNW,347,1.9,2.5,83,0.00,,,0.00,TxWx,2013-03-02 10:25:00,
2013-03-02 04:30:00,23.4,17.0,30.35,NNW,347,1.2,1.9,82,0.00,,,0.00,TxWx,2013-03-02 10:30:00,
2013-03-02 04:36:00,23.3,17.0,30.35,ENE,77,0.0,0.6,81,0.00,,,0.00,TxWx,2013-03-02 10:36:00,
2013-03-02 04:43:00,23.4,17.0,30.35,North,10,1.2,3.7,82,0.00,,,0.00,TxWx,2013-03-02 10:43:00,
2013-03-02 04:48:00,23.3,17.0,30.36,NNE,32,0.6,3.1,82,0.00,,,0.00,TxWx,2013-03-02 10:48:00,
2013-03-02 04:54:00,23.3,17.0,30.36,East,100,0.0,1.9,81,0.00,,,0.00,TxWx,2013-03-02 10:54:00,
2013-03-02 04:59:00,23.3,17.0,30.36,NNE,32,0.0,0.6,82,0.00,,,0.00,TxWx,2013-03-02 10:59:00,
2013-03-02 05:05:00,23.3,17.0,30.36,ENE,77,0.0,0.6,82,0.00,,,0.00,TxWx,2013-03-02 11:05:00,
2013-03-02 05:10:00,23.2,17.0,30.36,NNE,32,0.6,2.5,82,0.00,,,0.00,TxWx,2013-03-02 11:10:00,
2013-03-02 05:15:00,23.1,17.0,30.37,NNW,347,0.6,1.2,81,0.00,,,0.00,TxWx,2013-03-02 11:15:00,
2013-03-02 05:20:00,23.0,17.0,30.37,WNW,302,0.0,0.6,81,0.00,,,0.00,TxWx,2013-03-02 11:20:00,
2013-03-02 05:26:00,23.0,17.0,30.37,NW,325,0.6,1.2,80,0.00,,,0.00,TxWx,2013-03-02 11:26:00,
2013-03-02 05:31:00,22.9,17.0,30.37,NE,55,2.5,2.5,81,0.00,,,0.00,TxWx,2013-03-02 11:31:00,
2013-03-02 05:36:00,22.9,17.0,30.37,NE,55,0.6,1.2,81,0.00,,,0.00,TxWx,2013-03-02 11:36:00,
2013-03-02 05:41:00,22.9,17.0,30.37,NNE,32,0.0,0.6,81,0.00,,,0.00,TxWx,2013-03-02 11:41:00,
2013-03-02 05:46:00,22.7,17.0,30.37,NNW,347,1.9,4.3,81,0.00,,,0.00,TxWx,2013-03-02 11:46:00,
2013-03-02 05:52:00,22.8,17.0,30.37,East,100,0.0,2.5,80,0.00,,,0.00,TxWx,2013-03-02 11:52:00,
2013-03-02 05:57:00,22.7,17.0,30.38,North,10,3.1,3.1,80,0.00,,,0.00,TxWx,2013-03-02 11:57:00,
2013-03-02 06:02:00,22.7,17.0,30.38,NE,55,1.9,4.3,80,0.00,,,0.00,TxWx,2013-03-02 12:02:00,
2013-03-02 06:08:00,22.6,17.0,30.38,ENE,77,1.2,1.9,80,0.00,,,0.00,TxWx,2013-03-02 12:08:00,
2013-03-02 06:13:00,22.4,16.0,30.38,ENE,77,0.0,0.6,81,0.00,,,0.00,TxWx,2013-03-02 12:13:00,
2013-03-02 06:18:00,22.5,17.0,30.39,NNW,347,1.2,1.9,81,0.00,,,0.00,TxWx,2013-03-02 12:18:00,
2013-03-02 06:24:00,22.4,16.0,30.38,NNE,32,0.0,0.6,81,0.00,,,0.00,TxWx,2013-03-02 12:24:00,
2013-03-02 06:29:00,22.3,16.0,30.39,NE,55,1.9,1.9,81,0.00,,,0.00,TxWx,2013-03-02 12:29:00,
2013-03-02 06:34:00,22.2,16.0,30.38,North,10,0.0,0.6,81,0.00,,,0.00,TxWx,2013-03-02 12:34:00,
2013-03-02 06:39:00,22.1,16.0,30.38,NE,55,1.2,3.7,81,0.00,,,0.00,TxWx,2013-03-02 12:39:00,
2013-03-02 06:44:00,22.1,16.0,30.38,NE,55,0.0,1.2,81,0.00,,,0.00,TxWx,2013-03-02 12:44:00,
2013-03-02 06:50:00,22.1,16.0,30.38,ENE,77,0.0,0.6,81,0.00,,,0.00,TxWx,2013-03-02 12:50:00,
2013-03-02 06:55:00,21.9,16.0,30.38,East,100,1.9,3.7,81,0.00,,,0.00,TxWx,2013-03-02 12:55:00,
2013-03-02 07:01:00,21.9,16.0,30.39,NE,55,2.5,3.1,80,0.00,,,0.00,TxWx,2013-03-02 13:01:00,
2013-03-02 07:06:00,21.9,16.0,30.39,NNW,347,0.0,0.6,81,0.00,,,0.00,TxWx,2013-03-02 13:06:00,
2013-03-02 07:11:00,21.8,16.0,30.40,ENE,77,0.6,2.5,80,0.00,,,0.00,TxWx,2013-03-02 13:11:00,
2013-03-02 07:17:00,21.7,16.0,30.40,NE,55,1.2,2.5,80,0.00,,,0.00,TxWx,2013-03-02 13:17:00,
2013-03-02 07:22:00,21.8,16.0,30.40,North,10,0.6,1.2,81,0.00,,,0.00,TxWx,2013-03-02 13:22:00,
2013-03-02 07:27:00,21.8,16.0,30.40,NNW,347,0.6,2.5,80,0.00,,,0.00,TxWx,2013-03-02 13:27:00,
2013-03-02 07:33:00,21.8,16.0,30.40,North,10,1.9,3.7,80,0.00,,,0.00,TxWx,2013-03-02 13:33:00,
2013-03-02 07:38:00,21.8,16.0,30.40,ENE,77,1.2,3.7,80,0.00,,,0.00,TxWx,2013-03-02 13:38:00,
2013-03-02 07:43:00,21.6,15.0,30.40,NNE,32,3.7,5.0,79,0.00,,,0.00,TxWx,2013-03-02 13:43:00,
2013-03-02 07:49:00,21.6,15.0,30.40,ENE,77,0.6,1.9,79,0.00,,,0.00,TxWx,2013-03-02 13:49:00,
2013-03-02 07:54:00,21.8,16.0,30.40,NNE,32,0.6,0.6,80,0.00,,,0.00,TxWx,2013-03-02 13:54:00,
2013-03-02 07:59:00,21.8,16.0,30.40,NNW,347,0.6,3.7,80,0.00,,,0.00,TxWx,2013-03-02 13:59:00,
2013-03-02 08:05:00,22.0,16.0,30.40,NNE,32,0.0,0.6,80,0.00,,,0.00,TxWx,2013-03-02 14:05:00,
2013-03-02 08:10:00,22.0,15.0,30.41,NE,55,2.5,3.1,79,0.00,,,0.00,TxWx,2013-03-02 14:10:00,
2013-03-02 08:15:00,22.2,15.0,30.41,ENE,77,0.6,1.9,79,0.00,,,0.00,TxWx,2013-03-02 14:15:00,
2013-03-02 08:21:00,22.2,15.0,30.41,ENE,77,0.0,0.6,79,0.00,,,0.00,TxWx,2013-03-02 14:21:00,
2013-03-02 08:26:00,22.4,15.0,30.41,NNW,347,0.6,1.9,79,0.00,,,0.00,TxWx,2013-03-02 14:26:00,
2013-03-02 08:31:00,22.6,16.0,30.40,ENE,77,2.5,3.7,79,0.00,,,0.00,TxWx,2013-03-02 14:31:00,
2013-03-02 08:37:00,22.5,15.0,30.40,NNE,32,1.2,3.1,77,0.00,,,0.00,TxWx,2013-03-02 14:37:00,
2013-03-02 08:42:00,22.9,16.0,30.40,South,190,1.9,2.5,78,0.00,,,0.00,TxWx,2013-03-02 14:42:00,
2013-03-02 08:47:00,22.8,16.0,30.40,North,10,0.0,1.2,76,0.00,,,0.00,TxWx,2013-03-02 14:47:00,
2013-03-02 08:52:00,22.7,16.0,30.39,NE,55,1.2,1.9,77,0.00,,,0.00,TxWx,2013-03-02 14:52:00,
2013-03-02 08:58:00,22.9,16.0,30.40,North,10,0.6,0.6,78,0.00,,,0.00,TxWx,2013-03-02 14:58:00,
2013-03-02 09:03:00,23.3,16.0,30.39,WNW,302,1.2,3.7,77,0.00,,,0.00,TxWx,2013-03-02 15:03:00,
2013-03-02 09:09:00,24.3,16.0,30.39,NNW,347,0.6,3.7,76,0.00,,,0.00,TxWx,2013-03-02 15:09:00,
2013-03-02 09:15:00,24.7,17.0,30.39,West,280,0.0,0.6,73,0.00,,,0.00,TxWx,2013-03-02 15:15:00,
2013-03-02 09:20:00,24.7,17.0,30.39,West,280,2.5,2.5,73,0.00,,,0.00,TxWx,2013-03-02 15:20:00,
2013-03-02 09:26:00,24.5,16.0,30.39,NNW,347,1.9,3.7,73,0.00,,,0.00,TxWx,2013-03-02 15:26:00,
2013-03-02 09:31:00,24.9,16.0,30.39,NE,55,0.6,2.5,72,0.00,,,0.00,TxWx,2013-03-02 15:31:00,
2013-03-02 09:36:00,24.9,16.0,30.39,North,10,1.2,4.3,72,0.00,,,0.00,TxWx,2013-03-02 15:36:00,
2013-03-02 09:42:00,25.1,16.0,30.39,WSW,257,0.0,0.6,73,0.00,,,0.00,TxWx,2013-03-02 15:42:00,
2013-03-02 09:47:00,25.6,18.0,30.39,NE,55,0.6,0.6,73,0.00,,,0.00,TxWx,2013-03-02 15:47:00,
2013-03-02 09:53:00,25.9,17.0,30.39,West,280,0.0,0.6,71,0.00,,,0.00,TxWx,2013-03-02 15:53:00,
2013-03-02 09:58:00,25.8,16.0,30.39,ENE,77,1.2,3.7,68,0.00,,,0.00,TxWx,2013-03-02 15:58:00,
2013-03-02 10:03:00,26.5,17.0,30.39,East,100,0.0,1.2,70,0.00,,,0.00,TxWx,2013-03-02 16:03:00,
2013-03-02 10:09:00,27.1,17.0,30.39,ENE,77,3.7,3.7,68,0.00,,,0.00,TxWx,2013-03-02 16:09:00,
2013-03-02 10:14:00,27.4,17.0,30.40,NE,55,0.6,4.3,67,0.00,,,0.00,TxWx,2013-03-02 16:14:00,
2013-03-02 10:19:00,27.8,17.0,30.40,WNW,302,1.9,2.5,67,0.00,,,0.00,TxWx,2013-03-02 16:19:00,
2013-03-02 10:26:00,27.4,16.0,30.40,NW,325,2.5,3.7,65,0.00,,,0.00,TxWx,2013-03-02 16:26:00,
2013-03-02 10:32:00,27.5,18.0,30.40,NNW,347,0.6,2.5,68,0.00,,,0.00,TxWx,2013-03-02 16:32:00,
2013-03-02 10:37:00,28.6,19.0,30.40,WNW,302,1.9,1.9,69,0.00,,,0.00,TxWx,2013-03-02 16:37:00,
2013-03-02 10:42:00,29.0,18.0,30.40,ENE,77,0.0,0.6,65,0.00,,,0.00,TxWx,2013-03-02 16:42:00,
2013-03-02 10:48:00,29.0,17.0,30.40,West,280,0.0,1.9,64,0.00,,,0.00,TxWx,2013-03-02 16:48:00,
2013-03-02 10:53:00,28.1,16.0,30.40,SW,235,1.2,1.9,63,0.00,,,0.00,TxWx,2013-03-02 16:53:00,
2013-03-02 10:58:00,28.8,18.0,30.40,West,280,2.5,2.5,66,0.00,,,0.00,TxWx,2013-03-02 16:58:00,
2013-03-02 11:05:00,28.9,17.0,30.40,NW,325,0.0,1.2,63,0.00,,,0.00,TxWx,2013-03-02 17:05:00,
2013-03-02 11:10:00,29.7,18.0,30.40,NNE,32,1.9,2.5,65,0.00,,,0.00,TxWx,2013-03-02 17:10:00,
2013-03-02 11:15:00,30.0,18.0,30.39,West,280,5.0,5.6,64,0.00,,,0.00,TxWx,2013-03-02 17:15:00,
2013-03-02 11:20:00,30.3,18.0,30.39,NNW,347,2.5,3.7,64,0.00,,,0.00,TxWx,2013-03-02 17:20:00,
2013-03-02 11:25:00,30.3,18.0,30.39,WNW,302,1.9,3.1,63,0.00,,,0.00,TxWx,2013-03-02 17:25:00,
2013-03-02 11:31:00,30.5,19.0,30.38,WSW,257,2.5,2.5,62,0.00,,,0.00,TxWx,2013-03-02 17:31:00,
2013-03-02 11:36:00,30.3,18.0,30.38,West,280,3.1,4.3,64,0.00,,,0.00,TxWx,2013-03-02 17:36:00,
2013-03-02 11:42:00,29.3,17.0,30.38,West,280,0.6,2.5,63,0.00,,,0.00,TxWx,2013-03-02 17:42:00,
2013-03-02 11:48:00,29.7,18.0,30.38,WNW,302,0.0,1.2,63,0.00,,,0.00,TxWx,2013-03-02 17:48:00,
2013-03-02 11:54:00,30.3,18.0,30.37,West,280,2.5,5.6,65,0.00,,,0.00,TxWx,2013-03-02 17:54:00,
2013-03-02 11:59:00,31.3,19.0,30.37,NE,55,1.2,3.1,63,0.00,,,0.00,TxWx,2013-03-02 17:59:00,
2013-03-02 12:05:00,30.1,16.0,30.37,NNE,32,1.2,4.3,59,0.00,,,0.00,TxWx,2013-03-02 18:05:00,
2013-03-02 12:10:00,31.1,18.0,30.37,WNW,302,3.1,5.6,61,0.00,,,0.00,TxWx,2013-03-02 18:10:00,
2013-03-02 12:15:00,31.5,19.0,30.37,ENE,77,2.5,3.1,62,0.00,,,0.00,TxWx,2013-03-02 18:15:00,
2013-03-02 12:21:00,31.8,19.0,30.37,NNW,347,3.1,3.7,62,0.00,,,0.00,TxWx,2013-03-02 18:21:00,
2013-03-02 12:26:00,31.8,19.0,30.37,West,280,4.3,4.3,62,0.00,,,0.00,TxWx,2013-03-02 18:26:00,
2013-03-02 12:32:00,31.1,17.0,30.37,NNW,347,1.2,1.9,59,0.00,,,0.00,TxWx,2013-03-02 18:32:00,
2013-03-02 12:37:00,31.9,19.0,30.36,West,280,1.2,3.1,61,0.00,,,0.00,TxWx,2013-03-02 18:37:00,
2013-03-02 12:43:00,31.9,19.0,30.36,WNW,302,3.7,3.7,60,0.00,,,0.00,TxWx,2013-03-02 18:43:00,
2013-03-02 12:49:00,31.6,19.0,30.36,NNW,347,1.9,5.0,61,0.00,,,0.00,TxWx,2013-03-02 18:49:00,
2013-03-02 12:54:00,31.4,18.0,30.35,WNW,302,1.9,3.7,60,0.00,,,0.00,TxWx,2013-03-02 18:54:00,
2013-03-02 13:00:00,31.7,19.0,30.35,SW,235,1.9,4.3,61,0.00,,,0.00,TxWx,2013-03-02 19:00:00,
2013-03-02 13:06:00,31.8,20.0,30.35,South,190,1.2,3.1,63,0.00,,,0.00,TxWx,2013-03-02 19:06:00,
2013-03-02 13:12:00,31.9,19.0,30.34,SW,235,0.0,1.9,61,0.00,,,0.00,TxWx,2013-03-02 19:12:00,
2013-03-02 13:17:00,31.8,19.0,30.35,NNE,32,0.0,1.2,60,0.00,,,0.00,TxWx,2013-03-02 19:17:00,
2013-03-02 13:22:00,31.3,17.0,30.35,SW,235,1.2,5.6,59,0.00,,,0.01,TxWx,2013-03-02 19:22:00,
2013-03-02 13:28:00,31.4,17.0,30.35,WNW,302,3.1,3.7,59,0.00,,,0.07,TxWx,2013-03-02 19:28:00,
2013-03-02 13:33:00,31.9,19.0,30.34,WNW,302,3.7,4.3,62,0.60,,,0.09,TxWx,2013-03-02 19:33:00,
2013-03-02 13:39:00,32.0,20.0,30.34,NNE,32,0.0,1.2,63,0.60,,,0.09,TxWx,2013-03-02 19:39:00,
2013-03-02 13:45:00,32.1,19.0,30.34,WSW,257,0.0,0.6,61,0.60,,,0.12,TxWx,2013-03-02 19:45:00,
2013-03-02 13:50:00,33.2,21.0,30.34,West,280,2.5,2.5,63,0.60,,,0.17,TxWx,2013-03-02 19:50:00,
2013-03-02 13:56:00,32.9,20.0,30.34,NE,55,0.6,1.9,60,0.60,,,0.17,TxWx,2013-03-02 19:56:00,
2013-03-02 14:01:00,32.8,20.0,30.34,NNW,347,1.9,5.6,61,0.00,,,0.17,TxWx,2013-03-02 20:01:00,
2013-03-02 14:06:00,32.4,19.0,30.34,WNW,302,3.7,5.0,60,0.00,,,0.17,TxWx,2013-03-02 20:06:00,
2013-03-02 14:12:00,32.3,19.0,30.34,WSW,257,1.2,3.1,61,0.60,,,0.18,TxWx,2013-03-02 20:12:00,
2013-03-02 14:17:00,33.0,20.0,30.34,NNW,347,0.0,0.6,61,0.60,,,0.18,TxWx,2013-03-02 20:17:00,
2013-03-02 14:23:00,32.6,20.0,30.33,NNW,347,0.6,4.3,60,0.60,,,0.19,TxWx,2013-03-02 20:23:00,
2013-03-02 14:28:00,32.1,19.0,30.33,WNW,302,1.2,1.9,60,0.60,,,0.19,TxWx,2013-03-02 20:28:00,
2013-03-02 14:34:00,32.3,19.0,30.34,NNE,32,0.0,1.2,61,0.00,,,0.19,TxWx,2013-03-02 20:34:00,
2013-03-02 14:39:00,32.4,19.0,30.34,NNW,347,0.6,0.6,60,0.00,,,0.19,TxWx,2013-03-02 20:39:00,
2013-03-02 14:45:00,32.5,20.0,30.34,North,10,0.6,3.1,62,0.00,,,0.19,TxWx,2013-03-02 20:45:00,
2013-03-02 14:50:00,32.5,20.0,30.34,North,10,1.2,3.7,63,0.00,,,0.19,TxWx,2013-03-02 20:50:00,
2013-03-02 14:55:00,32.7,20.0,30.34,WNW,302,2.5,3.7,61,0.00,,,0.19,TxWx,2013-03-02 20:55:00,
2013-03-02 15:01:00,32.8,20.0,30.34,SW,235,1.2,3.7,60,0.00,,,0.19,TxWx,2013-03-02 21:01:00,
2013-03-02 15:06:00,33.1,20.0,30.34,NW,325,1.9,2.5,60,0.00,,,0.19,TxWx,2013-03-02 21:06:00,
2013-03-02 15:11:00,32.5,18.0,30.34,NNW,347,0.0,1.9,57,0.00,,,0.19,TxWx,2013-03-02 21:11:00,
2013-03-02 15:17:00,32.5,20.0,30.34,West,280,3.1,3.7,61,0.00,,,0.19,TxWx,2013-03-02 21:17:00,
2013-03-02 15:23:00,32.1,17.0,30.34,WSW,257,0.0,1.2,56,0.00,,,0.19,TxWx,2013-03-02 21:23:00,
2013-03-02 15:29:00,32.3,18.0,30.34,NNE,32,1.2,3.1,58,0.00,,,0.19,TxWx,2013-03-02 21:29:00,
2013-03-02 15:34:00,32.6,20.0,30.34,NNW,347,0.0,0.6,60,0.00,,,0.19,TxWx,2013-03-02 21:34:00,
2013-03-02 15:39:00,32.6,20.0,30.33,WNW,302,1.2,3.7,61,0.00,,,0.19,TxWx,2013-03-02 21:39:00,
2013-03-02 15:45:00,32.6,19.0,30.33,SW,235,1.9,3.7,59,0.00,,,0.19,TxWx,2013-03-02 21:45:00,
2013-03-02 15:50:00,32.7,20.0,30.33,WNW,302,3.1,6.2,60,0.00,,,0.19,TxWx,2013-03-02 21:50:00,
2013-03-02 15:55:00,32.6,19.0,30.33,South,190,1.9,4.3,59,0.00,,,0.19,TxWx,2013-03-02 21:55:00,
2013-03-02 16:01:00,32.5,18.0,30.33,NW,325,1.2,3.1,59,0.00,,,0.19,TxWx,2013-03-02 22:01:00,
2013-03-02 16:06:00,32.2,18.0,30.33,WSW,257,0.6,0.6,58,0.00,,,0.19,TxWx,2013-03-02 22:06:00,
2013-03-02 16:11:00,32.0,18.0,30.32,NNE,32,0.0,0.6,59,0.00,,,0.19,TxWx,2013-03-02 22:11:00,
2013-03-02 16:17:00,31.9,18.0,30.32,NE,55,0.0,0.6,58,0.00,,,0.19,TxWx,2013-03-02 22:17:00,
2013-03-02 16:22:00,32.6,19.0,30.32,NE,55,0.0,0.6,59,0.00,,,0.19,TxWx,2013-03-02 22:22:00,
2013-03-02 16:27:00,33.2,20.0,30.32,WNW,302,3.1,4.3,61,0.00,,,0.19,TxWx,2013-03-02 22:27:00,
2013-03-02 16:32:00,33.3,21.0,30.32,WSW,257,1.2,2.5,63,0.00,,,0.19,TxWx,2013-03-02 22:32:00,
2013-03-02 16:38:00,33.1,21.0,30.32,West,280,3.7,4.3,63,0.00,,,0.19,TxWx,2013-03-02 22:38:00,
2013-03-02 16:44:00,32.4,19.0,30.32,West,280,0.0,1.9,62,0.00,,,0.19,TxWx,2013-03-02 22:44:00,
2013-03-02 16:49:00,32.0,20.0,30.33,SW,235,2.5,3.1,65,0.00,,,0.19,TxWx,2013-03-02 22:49:00,
2013-03-02 16:56:00,31.6,20.0,30.32,SW,235,3.1,3.1,65,0.00,,,0.21,TxWx,2013-03-02 22:56:00,
2013-03-02 17:01:00,31.7,21.0,30.32,SSW,212,0.6,1.9,66,0.60,,,0.21,TxWx,2013-03-02 23:01:00,
2013-03-02 17:07:00,31.3,20.0,30.32,WSW,257,1.9,2.5,67,0.60,,,0.22,TxWx,2013-03-02 23:07:00,
2013-03-02 17:12:00,31.3,20.0,30.31,WSW,257,0.0,1.9,66,0.60,,,0.22,TxWx,2013-03-02 23:12:00,
2013-03-02 17:17:00,31.1,20.0,30.31,West,280,2.5,3.1,65,0.60,,,0.22,TxWx,2013-03-02 23:17:00,
2013-03-02 17:22:00,30.5,20.0,30.32,SW,235,0.0,0.6,67,0.60,,,0.23,TxWx,2013-03-02 23:22:00,
2013-03-02 17:27:00,30.4,20.0,30.32,WSW,257,1.9,2.5,68,0.60,,,0.23,TxWx,2013-03-02 23:27:00,
2013-03-02 17:34:00,29.7,20.0,30.32,SW,235,2.5,3.7,68,0.00,,,0.23,TxWx,2013-03-02 23:34:00,
2013-03-02 17:39:00,29.6,20.0,30.31,SSW,212,1.2,1.9,68,0.00,,,0.23,TxWx,2013-03-02 23:39:00,
2013-03-02 17:44:00,29.4,19.0,30.31,WSW,257,0.0,0.6,70,0.00,,,0.23,TxWx,2013-03-02 23:44:00,
2013-03-02 17:51:00,29.1,20.0,30.31,South,190,0.6,2.5,71,0.00,,,0.23,TxWx,2013-03-02 23:51:00,
2013-03-02 17:56:00,28.9,20.0,30.31,SW,235,0.6,1.9,71,0.00,,,0.23,TxWx,2013-03-02 23:56:00,
2013-03-02 18:01:00,28.7,20.0,30.31,SSW,212,0.0,0.6,71,0.00,,,0.23,TxWx,2013-03-03 00:01:00,
2013-03-02 18:07:00,28.5,20.0,30.31,SW,235,1.9,1.9,72,0.00,,,0.23,TxWx,2013-03-03 00:07:00,
2013-03-02 18:12:00,28.3,19.0,30.30,SW,235,0.0,0.6,72,0.00,,,0.23,TxWx,2013-03-03 00:12:00,
2013-03-02 18:17:00,28.1,19.0,30.30,SSW,212,1.9,2.5,72,0.00,,,0.23,TxWx,2013-03-03 00:17:00,
2013-03-02 18:23:00,28.0,19.0,30.31,WSW,257,1.2,2.5,72,0.00,,,0.23,TxWx,2013-03-03 00:23:00,
2013-03-02 18:28:00,28.0,19.0,30.31,SSW,212,0.0,0.6,72,0.00,,,0.23,TxWx,2013-03-03 00:28:00,
2013-03-02 18:33:00,27.8,19.0,30.30,SSW,212,0.0,0.6,72,0.00,,,0.23,TxWx,2013-03-03 00:33:00,
2013-03-02 18:39:00,27.5,19.0,30.30,SW,235,0.0,0.0,73,0.00,,,0.23,TxWx,2013-03-03 00:39:00,
2013-03-02 18:44:00,27.4,18.0,30.30,SW,235,0.0,0.0,73,0.00,,,0.23,TxWx,2013-03-03 00:44:00,
2013-03-02 18:49:00,27.4,18.0,30.30,NNW,347,0.0,0.0,73,0.00,,,0.23,TxWx,2013-03-03 00:49:00,
2013-03-02 18:55:00,27.3,19.0,30.30,East,100,0.0,0.0,74,0.00,,,0.23,TxWx,2013-03-03 00:55:00,
2013-03-02 19:00:00,27.3,19.0,30.30,WSW,257,0.0,0.6,75,0.00,,,0.23,TxWx,2013-03-03 01:00:00,
2013-03-02 19:05:00,27.3,19.0,30.31,SW,235,0.0,0.6,75,0.00,,,0.23,TxWx,2013-03-03 01:05:00,
2013-03-02 19:12:00,27.2,20.0,30.31,SSW,212,0.6,1.9,77,0.00,,,0.23,TxWx,2013-03-03 01:12:00,
2013-03-02 19:17:00,27.3,20.0,30.30,South,190,0.6,1.2,77,0.00,,,0.23,TxWx,2013-03-03 01:17:00,
2013-03-02 19:22:00,27.2,19.0,30.30,SW,235,1.9,2.5,76,0.00,,,0.23,TxWx,2013-03-03 01:22:00,
2013-03-02 19:28:00,27.2,19.0,30.29,SE,145,0.6,1.9,75,0.00,,,0.23,TxWx,2013-03-03 01:28:00,
2013-03-02 19:33:00,27.2,19.0,30.29,WSW,257,1.9,1.9,75,0.00,,,0.23,TxWx,2013-03-03 01:33:00,
2013-03-02 19:38:00,27.2,19.0,30.28,SW,235,0.6,1.9,76,0.00,,,0.23,TxWx,2013-03-03 01:38:00,
2013-03-02 19:44:00,27.1,19.0,30.28,South,190,0.0,0.6,75,0.00,,,0.23,TxWx,2013-03-03 01:44:00,
2013-03-02 19:49:00,27.1,19.0,30.28,SW,235,1.2,1.2,75,0.00,,,0.23,TxWx,2013-03-03 01:49:00,
2013-03-02 19:55:00,26.9,19.0,30.28,WSW,257,0.6,0.6,75,0.00,,,0.23,TxWx,2013-03-03 01:55:00,
2013-03-02 20:01:00,26.7,19.0,30.28,WSW,257,0.0,0.6,76,0.00,,,0.23,TxWx,2013-03-03 02:01:00,
2013-03-02 20:06:00,26.6,19.0,30.29,SW,235,0.0,0.6,76,0.00,,,0.23,TxWx,2013-03-03 02:06:00,
2013-03-02 20:12:00,26.5,18.0,30.28,WSW,257,0.0,0.6,76,0.00,,,0.23,TxWx,2013-03-03 02:12:00,
2013-03-02 20:17:00,26.5,18.0,30.28,NNE,32,0.0,0.0,76,0.00,,,0.23,TxWx,2013-03-03 02:17:00,
2013-03-02 20:22:00,26.4,18.0,30.27,East,100,0.0,0.0,76,0.00,,,0.23,TxWx,2013-03-03 02:22:00,
2013-03-02 20:28:00,26.4,19.0,30.27,East,100,0.0,1.2,77,0.00,,,0.23,TxWx,2013-03-03 02:28:00,
2013-03-02 20:34:00,26.5,19.0,30.27,WSW,257,0.0,0.6,77,0.00,,,0.23,TxWx,2013-03-03 02:34:00,
2013-03-02 20:39:00,26.2,19.0,30.27,WSW,257,0.0,0.6,77,0.00,,,0.23,TxWx,2013-03-03 02:39:00,
2013-03-02 20:44:00,26.2,19.0,30.27,SW,235,0.0,0.6,79,0.00,,,0.23,TxWx,2013-03-03 02:44:00,
2013-03-02 20:50:00,26.1,19.0,30.27,SSW,212,0.0,0.6,79,0.00,,,0.23,TxWx,2013-03-03 02:50:00,
2013-03-02 20:55:00,26.3,19.0,30.27,WSW,257,0.6,0.6,78,0.00,,,0.23,TxWx,2013-03-03 02:55:00,
2013-03-02 21:01:00,26.3,19.0,30.27,SSW,212,1.2,1.2,78,0.00,,,0.23,TxWx,2013-03-03 03:01:00,
2013-03-02 21:07:00,26.3,19.0,30.27,SSW,212,0.6,0.6,77,0.00,,,0.23,TxWx,2013-03-03 03:07:00,
2013-03-02 21:12:00,26.5,20.0,30.27,WSW,257,0.0,0.6,77,0.00,,,0.23,TxWx,2013-03-03 03:12:00,
2013-03-02 21:18:00,26.4,19.0,30.27,South,190,0.6,1.2,77,0.00,,,0.23,TxWx,2013-03-03 03:18:00,
2013-03-02 21:24:00,26.5,19.0,30.27,WSW,257,0.0,0.6,78,0.00,,,0.23,TxWx,2013-03-03 03:24:00,
2013-03-02 21:29:00,26.4,19.0,30.27,WSW,257,1.2,1.2,77,0.00,,,0.23,TxWx,2013-03-03 03:29:00,
2013-03-02 21:34:00,26.3,19.0,30.27,WSW,257,0.6,0.6,77,0.00,,,0.23,TxWx,2013-03-03 03:34:00,
2013-03-02 21:40:00,26.3,19.0,30.27,SSW,212,0.0,0.6,77,0.00,,,0.23,TxWx,2013-03-03 03:40:00,
2013-03-02 21:45:00,26.2,19.0,30.27,SSW,212,0.0,0.6,78,0.00,,,0.23,TxWx,2013-03-03 03:45:00,
2013-03-02 21:51:00,26.2,19.0,30.27,SSW,212,0.6,1.2,78,0.00,,,0.23,TxWx,2013-03-03 03:51:00,
2013-03-02 21:56:00,26.2,19.0,30.27,NNW,347,0.0,0.0,79,0.00,,,0.23,TxWx,2013-03-03 03:56:00,
2013-03-02 22:01:00,26.4,19.0,30.27,SW,235,0.0,0.0,78,0.00,,,0.23,TxWx,2013-03-03 04:01:00,
2013-03-02 22:07:00,26.4,19.0,30.27,West,280,0.6,1.2,78,0.00,,,0.23,TxWx,2013-03-03 04:07:00,
2013-03-02 22:12:00,26.4,19.0,30.27,SSW,212,0.6,2.5,78,0.00,,,0.23,TxWx,2013-03-03 04:12:00,
2013-03-02 22:17:00,26.5,19.0,30.26,SSW,212,0.0,0.6,78,0.00,,,0.23,TxWx,2013-03-03 04:17:00,
2013-03-02 22:22:00,26.5,19.0,30.25,SSW,212,1.2,1.9,78,0.00,,,0.23,TxWx,2013-03-03 04:22:00,
2013-03-02 22:28:00,26.4,19.0,30.25,South,190,0.6,1.2,79,0.00,,,0.23,TxWx,2013-03-03 04:28:00,
2013-03-02 22:33:00,26.4,19.0,30.25,SSW,212,2.5,3.7,78,0.00,,,0.23,TxWx,2013-03-03 04:33:00,
2013-03-02 22:39:00,26.5,20.0,30.25,SSW,212,0.0,0.0,78,0.00,,,0.23,TxWx,2013-03-03 04:39:00,
2013-03-02 22:44:00,26.5,20.0,30.25,South,190,1.2,1.2,77,0.00,,,0.23,TxWx,2013-03-03 04:44:00,
2013-03-02 22:50:00,26.5,20.0,30.25,South,190,0.6,1.2,77,0.00,,,0.23,TxWx,2013-03-03 04:50:00,
2013-03-02 22:55:00,26.6,20.0,30.25,South,190,0.0,0.0,77,0.00,,,0.23,TxWx,2013-03-03 04:55:00,
2013-03-02 23:01:00,26.4,19.0,30.25,SW,235,0.0,1.2,77,0.00,,,0.23,TxWx,2013-03-03 05:01:00,
2013-03-02 23:02:00,26.5,19.0,30.25,SSW,212,0.0,0.6,77,0.00,,,0.23,TxWx,2013-03-03 05:02:00,
2013-03-02 23:03:00,26.5,19.0,30.25,South,190,2.5,3.1,77,0.00,,,0.23,TxWx,2013-03-03 05:03:00,
2013-03-02 23:05:00,26.4,19.0,30.25,South,190,1.2,2.5,77,0.00,,,0.23,TxWx,2013-03-03 05:05:00,
2013-03-02 23:11:00,26.4,19.0,30.25,SW,235,0.6,1.2,78,0.00,,,0.23,TxWx,2013-03-03 05:11:00,
2013-03-02 23:16:00,26.4,19.0,30.25,SSW,212,0.0,0.6,78,0.00,,,0.23,TxWx,2013-03-03 05:16:00,
2013-03-02 23:21:00,26.4,19.0,30.25,West,280,0.0,0.6,78,0.00,,,0.23,TxWx,2013-03-03 05:21:00,
2013-03-02 23:26:00,26.3,19.0,30.25,WSW,257,0.0,0.6,78,0.00,,,0.23,TxWx,2013-03-03 05:26:00,
2013-03-02 23:32:00,26.4,19.0,30.24,SSW,212,1.9,2.5,78,0.00,,,0.23,TxWx,2013-03-03 05:32:00,
2013-03-02 23:37:00,26.4,19.0,30.24,South,190,0.6,0.6,78,0.00,,,0.23,TxWx,2013-03-03 05:37:00,
2013-03-02 23:42:00,26.4,19.0,30.24,SW,235,0.6,0.6,78,0.00,,,0.23,TxWx,2013-03-03 05:42:00,
2013-03-02 23:48:00,26.4,19.0,30.24,South,190,0.0,1.2,79,0.00,,,0.23,TxWx,2013-03-03 05:48:00,
2013-03-02 23:53:00,26.3,19.0,30.23,SSW,212,0.0,0.6,78,0.00,,,0.23,TxWx,2013-03-03 05:53:00,
2013-03-02 23:58:00,26.2,19.0,30.24,South,190,0.0,0.0,79,0.00,,,0.23,TxWx,2013-03-03 05:58:00,